Time;durP1;ratioP1;P1;durP2;ratioP2;P2;SDS_P1;SDS_P2;PMS_P1;PMS_P2;Temp;Humidity;BMP_temperature;BMP_pressure;BME280_temperature;BME280_humidity;BME280_pressure;Samples;Min_cycle;Max_cycle;Signal;HPM_P1;HPM_P2
2022/10/20 00:00:55;;;;;;;3.98;2.00;;;;;;;;;;1757661;81;21600;-60
2022/10/20 00:03:22;;;;;;;2.27;1.80;;;;;;;;;;1751426;81;21033;-60
2022/10/20 00:05:48;;;;;;;1.92;1.70;;;;;;;;;;1752016;81;21517;-60
2022/10/20 00:08:14;;;;;;;1.57;1.47;;;;;;;;;;1767461;81;21029;-60
2022/10/20 00:10:41;;;;;;;1.87;1.75;;;;;;;;;;1766383;80;20973;-60
2022/10/20 00:13:07;;;;;;;1.98;1.60;;;;;;;;;;1752678;80;21064;-60
2022/10/20 00:15:34;;;;;;;2.25;1.72;;;;;;;;;;1753121;80;21080;-60
2022/10/20 00:18:00;;;;;;;2.72;1.92;;;;;;;;;;1753171;80;21037;-60
2022/10/20 00:20:26;;;;;;;1.57;1.47;;;;;;;;;;1768235;81;20993;-60
2022/10/20 00:22:52;;;;;;;1.77;1.65;;;;;;;;;;1767454;81;21001;-60
2022/10/20 00:25:19;;;;;;;2.12;1.60;;;;;;;;;;1766145;81;21068;-60
2022/10/20 00:27:45;;;;;;;1.50;1.40;;;;;;;;;;1764405;80;21060;-60
2022/10/20 00:30:11;;;;;;;5.45;1.82;;;;;;;;;;1760862;81;21033;-60
2022/10/20 00:32:38;;;;;;;1.72;1.57;;;;;;;;;;1763857;81;21025;-60
2022/10/20 00:35:05;;;;;;;3.65;1.60;;;;;;;;;;1753516;81;21477;-60
2022/10/20 00:37:31;;;;;;;5.08;1.50;;;;;;;;;;1756382;81;21549;-60
2022/10/20 00:39:57;;;;;;;2.72;1.50;;;;;;;;;;1753459;81;21029;-60
2022/10/20 00:42:25;;;;;;;3.33;1.98;;;;;;;;;;1757028;80;21538;-60
2022/10/20 00:44:55;;;;;;;1.62;1.40;;;;;;;;;;1764434;81;21146;-60
2022/10/20 00:47:38;;;;;;;2.22;1.50;;;;;;;;;;1768594;81;21014;-60
2022/10/20 00:50:15;;;;;;;1.45;1.35;;;;;;;;;;1768940;81;20997;-61
2022/10/20 00:52:42;;;;;;;2.33;1.50;;;;;;;;;;1757475;81;21017;-61
2022/10/20 00:55:08;;;;;;;1.50;1.40;;;;;;;;;;1753232;81;21044;-61
2022/10/20 00:57:35;;;;;;;2.72;1.50;;;;;;;;;;1753392;81;21544;-61
2022/10/20 01:00:01;;;;;;;1.62;1.50;;;;;;;;;;1758279;81;21040;-61
2022/10/20 01:02:28;;;;;;;1.75;1.40;;;;;;;;;;1765815;81;20994;-60
2022/10/20 01:04:54;;;;;;;1.25;1.22;;;;;;;;;;1762245;81;21079;-60
2022/10/20 01:07:21;;;;;;;1.60;1.40;;;;;;;;;;1762776;81;21037;-60
2022/10/20 01:09:48;;;;;;;1.75;1.60;;;;;;;;;;1761222;81;21067;-60
2022/10/20 01:12:31;;;;;;;1.77;1.40;;;;;;;;;;1760881;80;21024;-60
2022/10/20 01:15:00;;;;;;;2.02;1.50;;;;;;;;;;1776252;81;21028;-60
2022/10/20 01:17:34;;;;;;;1.77;1.35;;;;;;;;;;1776766;81;21064;-60
2022/10/20 01:20:11;;;;;;;3.08;1.40;;;;;;;;;;1761131;81;21020;-61
2022/10/20 01:24:08;;;;;;;1.85;1.60;;;;;;;;;;1805366;79;23547;-60
2022/10/20 01:26:39;;;;;;;2.98;1.50;;;;;;;;;;1765164;80;21722;-60
2022/10/20 01:29:10;;;;;;;2.45;1.50;;;;;;;;;;1761250;81;21537;-60
2022/10/20 01:31:38;;;;;;;2.15;1.67;;;;;;;;;;1761314;81;21052;-59
2022/10/20 01:34:09;;;;;;;1.70;1.60;;;;;;;;;;1761306;81;21099;-60
2022/10/20 01:36:39;;;;;;;3.20;1.50;;;;;;;;;;1761965;80;21094;-60
2022/10/20 01:39:07;;;;;;;1.92;1.40;;;;;;;;;;1761422;81;21533;-59
2022/10/20 01:41:35;;;;;;;1.75;1.60;;;;;;;;;;1761685;80;21086;-59
2022/10/20 01:44:02;;;;;;;1.40;1.30;;;;;;;;;;1761453;81;21030;-59
2022/10/20 01:46:28;;;;;;;1.72;1.37;;;;;;;;;;1761716;81;21026;-59
2022/10/20 01:48:55;;;;;;;1.50;1.40;;;;;;;;;;1761902;80;21059;-59
2022/10/20 01:51:21;;;;;;;1.60;1.50;;;;;;;;;;1775575;80;21024;-59
2022/10/20 01:53:47;;;;;;;1.40;1.30;;;;;;;;;;1777668;80;21517;-59
2022/10/20 01:56:15;;;;;;;1.55;1.40;;;;;;;;;;1770008;80;20997;-59
2022/10/20 01:58:56;;;;;;;1.57;1.40;;;;;;;;;;1782024;80;21086;-59
2022/10/20 02:04:12;;;;;;;1.70;1.60;;;;;;;;;;1749397;78;76840;-60
2022/10/20 02:06:43;;;;;;;1.98;1.70;;;;;;;;;;1752943;80;21076;-59
2022/10/20 02:09:14;;;;;;;2.72;1.60;;;;;;;;;;1760465;80;21036;-59
2022/10/20 02:11:51;;;;;;;2.02;1.50;;;;;;;;;;1750364;81;21502;-60
2022/10/20 02:14:17;;;;;;;1.98;1.20;;;;;;;;;;1765320;81;21036;-60
2022/10/20 02:16:45;;;;;;;1.50;1.40;;;;;;;;;;1779261;81;21048;-60
2022/10/20 02:19:11;;;;;;;2.42;1.27;;;;;;;;;;1758707;80;21001;-60
2022/10/20 02:21:38;;;;;;;2.25;1.57;;;;;;;;;;1770063;81;21055;-60
2022/10/20 02:24:05;;;;;;;1.62;1.50;;;;;;;;;;1752492;81;21013;-60
2022/10/20 02:26:31;;;;;;;1.47;1.37;;;;;;;;;;1764777;80;21485;-60
2022/10/20 02:28:59;;;;;;;1.82;1.57;;;;;;;;;;1770981;80;20969;-60
2022/10/20 02:31:25;;;;;;;1.70;1.40;;;;;;;;;;1779023;81;21562;-60
2022/10/20 02:33:52;;;;;;;2.00;1.60;;;;;;;;;;1778558;81;21009;-61
2022/10/20 02:36:19;;;;;;;1.45;1.35;;;;;;;;;;1777009;81;21054;-60
2022/10/20 02:38:45;;;;;;;1.67;1.55;;;;;;;;;;1767636;80;21017;-61
2022/10/20 02:41:11;;;;;;;1.50;1.40;;;;;;;;;;1776443;81;20986;-60
2022/10/20 02:43:37;;;;;;;1.57;1.47;;;;;;;;;;1779036;81;21032;-60
2022/10/20 02:46:04;;;;;;;1.98;1.50;;;;;;;;;;1765682;81;21025;-59
2022/10/20 02:48:30;;;;;;;1.92;1.70;;;;;;;;;;1769998;80;21005;-59
2022/10/20 02:50:56;;;;;;;1.75;1.57;;;;;;;;;;1778671;81;22223;-59
2022/10/20 02:53:22;;;;;;;4.75;1.87;;;;;;;;;;1778879;81;21056;-59
2022/10/20 02:55:49;;;;;;;2.10;1.60;;;;;;;;;;1773357;81;21029;-61
2022/10/20 02:58:15;;;;;;;1.90;1.70;;;;;;;;;;1778539;80;21096;-59
2022/10/20 03:00:41;;;;;;;3.85;1.80;;;;;;;;;;1778651;81;21551;-59
2022/10/20 03:03:08;;;;;;;2.05;1.80;;;;;;;;;;1764042;81;21065;-58
2022/10/20 03:05:38;;;;;;;1.55;1.45;;;;;;;;;;1749627;81;21022;-59
2022/10/20 03:08:04;;;;;;;2.58;1.85;;;;;;;;;;1743116;81;22096;-59
2022/10/20 03:10:34;;;;;;;2.52;1.62;;;;;;;;;;1768182;80;20990;-59
2022/10/20 03:13:00;;;;;;;1.50;1.40;;;;;;;;;;1756665;80;21017;-60
2022/10/20 03:15:26;;;;;;;3.25;1.60;;;;;;;;;;1768650;81;21092;-59
2022/10/20 03:17:52;;;;;;;2.30;1.80;;;;;;;;;;1768778;81;21041;-59
2022/10/20 03:20:19;;;;;;;1.45;1.35;;;;;;;;;;1745914;80;21049;-59
2022/10/20 03:22:45;;;;;;;1.45;1.35;;;;;;;;;;1741084;82;21010;-59
2022/10/20 03:25:11;;;;;;;2.05;1.60;;;;;;;;;;1740691;82;21598;-59
2022/10/20 03:27:39;;;;;;;2.58;1.67;;;;;;;;;;1764327;80;21025;-59
2022/10/20 03:30:05;;;;;;;3.52;1.70;;;;;;;;;;1768931;81;21056;-59
2022/10/20 03:32:31;;;;;;;2.50;1.57;;;;;;;;;;1768890;81;21095;-59
2022/10/20 03:34:57;;;;;;;2.05;1.55;;;;;;;;;;1769111;81;21508;-59
2022/10/20 03:37:24;;;;;;;2.00;1.40;;;;;;;;;;1763134;81;21305;-59
2022/10/20 03:39:50;;;;;;;2.20;1.62;;;;;;;;;;1768859;81;21014;-59
2022/10/20 03:42:16;;;;;;;1.70;1.50;;;;;;;;;;1763081;81;21047;-59
2022/10/20 03:44:44;;;;;;;1.87;1.50;;;;;;;;;;1736482;82;21031;-60
2022/10/20 03:47:11;;;;;;;2.00;1.80;;;;;;;;;;1748851;80;21025;-61
2022/10/20 03:49:37;;;;;;;2.60;1.60;;;;;;;;;;1768133;81;21005;-61
2022/10/20 03:52:04;;;;;;;1.57;1.40;;;;;;;;;;1761896;81;20974;-61
2022/10/20 03:54:30;;;;;;;1.50;1.40;;;;;;;;;;1763239;81;21021;-61
2022/10/20 03:56:57;;;;;;;2.20;1.55;;;;;;;;;;1750331;81;21017;-61
2022/10/20 03:59:23;;;;;;;1.57;1.47;;;;;;;;;;1768110;81;21065;-59
2022/10/20 04:01:50;;;;;;;1.60;1.50;;;;;;;;;;1768641;81;21045;-59
2022/10/20 04:04:17;;;;;;;1.85;1.62;;;;;;;;;;1768512;80;21068;-59
2022/10/20 04:06:44;;;;;;;1.60;1.50;;;;;;;;;;1777608;80;21021;-59
2022/10/20 04:09:10;;;;;;;1.82;1.70;;;;;;;;;;1754368;81;21049;-60
2022/10/20 04:11:38;;;;;;;1.85;1.67;;;;;;;;;;1778550;81;21025;-60
2022/10/20 04:14:04;;;;;;;2.05;1.60;;;;;;;;;;1777755;81;21020;-60
2022/10/20 04:16:31;;;;;;;3.92;1.70;;;;;;;;;;1757918;81;21547;-60
2022/10/20 04:18:58;;;;;;;2.72;1.65;;;;;;;;;;1774582;81;20993;-60
2022/10/20 04:21:25;;;;;;;2.47;1.60;;;;;;;;;;1770924;81;21552;-60
2022/10/20 04:23:52;;;;;;;2.58;1.98;;;;;;;;;;1772152;81;21506;-60
2022/10/20 04:26:18;;;;;;;2.17;1.80;;;;;;;;;;1752946;80;20973;-61
2022/10/20 04:28:45;;;;;;;2.58;1.82;;;;;;;;;;1763222;80;21025;-60
2022/10/20 04:31:12;;;;;;;2.35;1.75;;;;;;;;;;1778630;81;21045;-59
2022/10/20 04:33:40;;;;;;;2.52;1.67;;;;;;;;;;1777300;81;21025;-59
2022/10/20 04:36:07;;;;;;;1.98;1.67;;;;;;;;;;1768944;80;21001;-60
2022/10/20 04:38:33;;;;;;;1.70;1.60;;;;;;;;;;1774813;81;21033;-60
2022/10/20 04:41:00;;;;;;;1.82;1.60;;;;;;;;;;1767467;81;21021;-60
2022/10/20 04:43:26;;;;;;;2.92;1.60;;;;;;;;;;1769875;81;21151;-60
2022/10/20 04:45:57;;;;;;;2.72;1.60;;;;;;;;;;1763367;80;21080;-60
2022/10/20 04:48:21;;;;;;;1.72;1.62;;;;;;;;;;1764521;80;21053;-61
2022/10/20 04:50:47;;;;;;;2.62;1.70;;;;;;;;;;1768443;81;21021;-60
2022/10/20 04:53:13;;;;;;;2.12;1.65;;;;;;;;;;1778593;81;21061;-60
2022/10/20 04:55:39;;;;;;;1.80;1.70;;;;;;;;;;1778490;81;21512;-60
2022/10/20 04:58:05;;;;;;;1.75;1.55;;;;;;;;;;1764854;80;21002;-61
2022/10/20 05:00:32;;;;;;;3.60;1.80;;;;;;;;;;1764472;81;21053;-60
2022/10/20 05:02:58;;;;;;;6.40;2.22;;;;;;;;;;1772635;80;21619;-60
2022/10/20 05:05:24;;;;;;;2.08;1.87;;;;;;;;;;1778629;81;21068;-60
2022/10/20 05:07:51;;;;;;;2.40;1.57;;;;;;;;;;1776919;80;21016;-60
2022/10/20 05:10:19;;;;;;;4.60;2.33;;;;;;;;;;1771841;80;21044;-60
2022/10/20 05:12:46;;;;;;;2.50;1.62;;;;;;;;;;1770407;80;21009;-60
2022/10/20 05:15:14;;;;;;;1.77;1.67;;;;;;;;;;1771787;80;21021;-59
2022/10/20 05:17:42;;;;;;;3.08;1.80;;;;;;;;;;1777977;81;21084;-60
2022/10/20 05:20:08;;;;;;;3.17;2.17;;;;;;;;;;1778275;81;21048;-60
2022/10/20 05:22:34;;;;;;;3.05;2.00;;;;;;;;;;1767846;80;21021;-60
2022/10/20 05:25:00;;;;;;;3.02;1.87;;;;;;;;;;1774356;81;21441;-60
2022/10/20 05:27:27;;;;;;;3.00;2.10;;;;;;;;;;1767295;81;21027;-60
2022/10/20 05:29:54;;;;;;;3.10;2.10;;;;;;;;;;1773560;81;21048;-60
2022/10/20 05:32:20;;;;;;;2.30;1.70;;;;;;;;;;1776251;80;21044;-60
2022/10/20 05:34:48;;;;;;;4.05;2.12;;;;;;;;;;1770935;81;21048;-60
2022/10/20 05:37:14;;;;;;;1.98;1.70;;;;;;;;;;1769654;81;21009;-60
2022/10/20 05:39:42;;;;;;;1.82;1.67;;;;;;;;;;1777548;80;21036;-60
2022/10/20 05:42:09;;;;;;;3.67;1.80;;;;;;;;;;1773782;81;21067;-60
2022/10/20 05:44:35;;;;;;;1.77;1.67;;;;;;;;;;1778298;80;21031;-60
2022/10/20 05:47:01;;;;;;;2.52;1.80;;;;;;;;;;1778396;80;21049;-60
2022/10/20 05:49:27;;;;;;;1.40;1.30;;;;;;;;;;1773661;81;21041;-61
2022/10/20 05:51:53;;;;;;;4.53;2.10;;;;;;;;;;1764264;80;21058;-60
2022/10/20 05:54:20;;;;;;;1.82;1.67;;;;;;;;;;1766835;81;21006;-60
2022/10/20 05:56:46;;;;;;;2.52;1.92;;;;;;;;;;1764524;80;21028;-60
2022/10/20 05:59:13;;;;;;;4.50;2.30;;;;;;;;;;1777422;80;21059;-61
2022/10/20 06:01:49;;;;;;;4.12;2.30;;;;;;;;;;1765891;81;20986;-61
2022/10/20 06:04:15;;;;;;;2.87;2.10;;;;;;;;;;1775376;81;21061;-61
2022/10/20 06:06:43;;;;;;;2.58;1.98;;;;;;;;;;1744886;81;21009;-60
2022/10/20 06:09:09;;;;;;;2.95;2.08;;;;;;;;;;1755622;81;21025;-60
2022/10/20 06:11:37;;;;;;;2.98;2.15;;;;;;;;;;1768874;81;21064;-59
2022/10/20 06:14:03;;;;;;;3.75;2.10;;;;;;;;;;1744450;81;21028;-59
2022/10/20 06:16:31;;;;;;;2.92;2.00;;;;;;;;;;1741159;82;21056;-59
2022/10/20 06:18:59;;;;;;;4.25;2.52;;;;;;;;;;1755327;81;22333;-59
2022/10/20 06:21:28;;;;;;;3.30;2.10;;;;;;;;;;1768859;81;21072;-59
2022/10/20 06:23:57;;;;;;;2.67;2.00;;;;;;;;;;1768821;81;21108;-59
2022/10/20 06:26:24;;;;;;;3.35;2.22;;;;;;;;;;1762949;81;21154;-59
2022/10/20 06:28:50;;;;;;;1.90;1.80;;;;;;;;;;1763777;81;21524;-59
2022/10/20 06:31:17;;;;;;;2.65;2.00;;;;;;;;;;1745149;81;21177;-59
2022/10/20 06:33:44;;;;;;;2.50;2.00;;;;;;;;;;1762524;81;21482;-59
2022/10/20 06:36:10;;;;;;;3.37;2.17;;;;;;;;;;1752050;81;21061;-60
2022/10/20 06:38:37;;;;;;;5.15;2.80;;;;;;;;;;1756140;81;21005;-60
2022/10/20 06:41:05;;;;;;;4.97;2.60;;;;;;;;;;1748535;81;21230;-60
2022/10/20 06:43:33;;;;;;;3.75;2.50;;;;;;;;;;1755172;81;21568;-60
2022/10/20 06:46:00;;;;;;;2.80;1.92;;;;;;;;;;1765257;81;21150;-60
2022/10/20 06:48:27;;;;;;;3.95;2.30;;;;;;;;;;1746330;81;21491;-59
2022/10/20 06:51:06;;;;;;;3.05;2.00;;;;;;;;;;1753064;81;21504;-61
2022/10/20 06:53:35;;;;;;;3.77;2.30;;;;;;;;;;1765193;81;21517;-61
2022/10/20 06:56:02;;;;;;;2.92;2.30;;;;;;;;;;1768682;81;21052;-62
2022/10/20 06:58:28;;;;;;;4.22;2.60;;;;;;;;;;1761363;81;21021;-61
2022/10/20 07:01:01;;;;;;;4.05;2.50;;;;;;;;;;1743230;81;21023;-61
2022/10/20 07:03:27;;;;;;;4.85;2.55;;;;;;;;;;1752640;81;21588;-60
2022/10/20 07:05:54;;;;;;;3.20;2.40;;;;;;;;;;1767763;80;21009;-61
2022/10/20 07:08:21;;;;;;;3.72;2.75;;;;;;;;;;1766245;80;21073;-61
2022/10/20 07:11:07;;;;;;;3.15;2.10;;;;;;;;;;1776522;80;21905;-60
2022/10/20 07:13:34;;;;;;;8.18;2.55;;;;;;;;;;1779983;80;20997;-60
2022/10/20 07:16:01;;;;;;;3.42;2.27;;;;;;;;;;1779680;80;21044;-60
2022/10/20 07:18:27;;;;;;;6.10;2.90;;;;;;;;;;1766827;80;21041;-60
2022/10/20 07:20:56;;;;;;;3.58;2.50;;;;;;;;;;1779142;80;21033;-60
2022/10/20 07:23:22;;;;;;;3.08;2.37;;;;;;;;;;1778296;80;21521;-60
2022/10/20 07:25:48;;;;;;;3.35;2.20;;;;;;;;;;1759511;80;21540;-60
2022/10/20 07:28:14;;;;;;;2.55;2.10;;;;;;;;;;1759690;80;20993;-60
2022/10/20 07:30:41;;;;;;;3.22;2.20;;;;;;;;;;1747265;80;21013;-60
2022/10/20 07:33:08;;;;;;;3.47;2.35;;;;;;;;;;1770131;80;21519;-58
2022/10/20 07:35:34;;;;;;;3.22;2.47;;;;;;;;;;1769337;80;21021;-59
2022/10/20 07:38:00;;;;;;;3.30;2.67;;;;;;;;;;1772821;80;21034;-58
2022/10/20 07:40:26;;;;;;;3.00;2.27;;;;;;;;;;1780674;80;22366;-59
2022/10/20 07:42:53;;;;;;;3.65;2.50;;;;;;;;;;1776886;80;21056;-58
2022/10/20 07:45:19;;;;;;;5.30;2.52;;;;;;;;;;1781224;80;21076;-59
2022/10/20 07:47:45;;;;;;;4.45;2.67;;;;;;;;;;1782213;80;21095;-59
2022/10/20 07:50:11;;;;;;;3.02;2.10;;;;;;;;;;1781030;80;21020;-59
2022/10/20 07:52:38;;;;;;;3.12;2.22;;;;;;;;;;1768816;80;21018;-59
2022/10/20 07:55:05;;;;;;;3.45;2.30;;;;;;;;;;1777962;80;21180;-59
2022/10/20 07:57:31;;;;;;;6.33;2.83;;;;;;;;;;1769772;80;21902;-59
2022/10/20 07:59:58;;;;;;;5.42;3.00;;;;;;;;;;1772158;80;21052;-59
2022/10/20 08:02:24;;;;;;;4.47;3.10;;;;;;;;;;1768278;79;21065;-59
2022/10/20 08:04:50;;;;;;;4.50;2.75;;;;;;;;;;1748544;80;21000;-60
2022/10/20 08:07:17;;;;;;;3.83;2.42;;;;;;;;;;1738681;82;21096;-59
2022/10/20 08:09:43;;;;;;;6.45;3.10;;;;;;;;;;1770400;80;21025;-59
2022/10/20 08:12:09;;;;;;;4.70;2.60;;;;;;;;;;1768719;81;21532;-59
2022/10/20 08:14:37;;;;;;;3.17;2.65;;;;;;;;;;1758657;81;20993;-60
2022/10/20 08:17:04;;;;;;;4.55;2.72;;;;;;;;;;1774640;80;21044;-59
2022/10/20 08:19:30;;;;;;;3.92;2.52;;;;;;;;;;1759952;81;21021;-60
2022/10/20 08:21:56;;;;;;;3.25;2.37;;;;;;;;;;1765668;80;21090;-59
2022/10/20 08:24:23;;;;;;;4.00;2.55;;;;;;;;;;1769049;81;21049;-60
2022/10/20 08:26:49;;;;;;;3.87;2.70;;;;;;;;;;1777448;81;21056;-59
2022/10/20 08:29:15;;;;;;;4.25;2.87;;;;;;;;;;1768531;81;21102;-60
2022/10/20 08:31:44;;;;;;;3.90;2.67;;;;;;;;;;1778163;81;21025;-60
2022/10/20 08:34:11;;;;;;;5.25;3.27;;;;;;;;;;1773001;81;21029;-58
2022/10/20 08:36:37;;;;;;;4.35;3.00;;;;;;;;;;1770373;81;21025;-59
2022/10/20 08:39:03;;;;;;;5.87;2.75;;;;;;;;;;1776329;81;21057;-59
2022/10/20 08:41:32;;;;;;;5.92;3.33;;;;;;;;;;1778403;81;21040;-59
2022/10/20 08:43:59;;;;;;;4.40;2.98;;;;;;;;;;1767015;81;21025;-58
2022/10/20 08:46:27;;;;;;;4.40;3.22;;;;;;;;;;1771307;81;21022;-58
2022/10/20 08:48:53;;;;;;;4.17;3.15;;;;;;;;;;1759454;80;21260;-58
2022/10/20 08:51:20;;;;;;;5.53;3.02;;;;;;;;;;1764637;80;21058;-58
2022/10/20 08:53:48;;;;;;;4.45;2.90;;;;;;;;;;1762141;80;21068;-58
2022/10/20 08:56:14;;;;;;;4.28;2.72;;;;;;;;;;1767146;81;21033;-58
2022/10/20 08:58:43;;;;;;;5.03;3.33;;;;;;;;;;1760757;81;21105;-59
2022/10/20 09:01:19;;;;;;;4.28;3.00;;;;;;;;;;1774401;81;21044;-61
2022/10/20 09:03:46;;;;;;;3.77;2.83;;;;;;;;;;1758572;81;21052;-60
2022/10/20 09:06:14;;;;;;;3.15;2.80;;;;;;;;;;1776723;81;21028;-60
2022/10/20 09:08:42;;;;;;;6.40;3.05;;;;;;;;;;1777266;81;21088;-59
2022/10/20 09:11:10;;;;;;;5.97;2.95;;;;;;;;;;1768115;81;21065;-59
2022/10/20 09:13:37;;;;;;;5.03;2.80;;;;;;;;;;1774415;81;21029;-58
2022/10/20 09:16:05;;;;;;;3.42;2.65;;;;;;;;;;1777187;81;21536;-58
2022/10/20 09:18:31;;;;;;;4.47;3.30;;;;;;;;;;1772788;80;21020;-60
2022/10/20 09:21:00;;;;;;;5.25;3.22;;;;;;;;;;1765348;80;21311;-58
2022/10/20 09:23:40;;;;;;;5.75;3.40;;;;;;;;;;1766729;81;21005;-59
2022/10/20 09:26:10;;;;;;;5.85;3.45;;;;;;;;;;1777120;81;21021;-59
2022/10/20 09:28:37;;;;;;;4.78;3.47;;;;;;;;;;1763338;81;21028;-59
2022/10/20 09:31:03;;;;;;;6.33;4.15;;;;;;;;;;1745692;81;21053;-59
2022/10/20 09:33:31;;;;;;;6.92;3.90;;;;;;;;;;1741794;81;21033;-59
2022/10/20 09:36:04;;;;;;;6.37;3.70;;;;;;;;;;1715579;82;21563;-58
2022/10/20 09:38:32;;;;;;;8.13;3.67;;;;;;;;;;1709299;84;21532;-59
2022/10/20 09:41:12;;;;;;;7.75;4.85;;;;;;;;;;1763511;81;21000;-59
2022/10/20 09:43:52;;;;;;;6.15;3.83;;;;;;;;;;1765795;81;21009;-60
2022/10/20 09:46:20;;;;;;;7.55;4.70;;;;;;;;;;1769769;80;21000;-59
2022/10/20 09:49:26;;;;;;;7.15;3.72;;;;;;;;;;1749466;81;21147;-59
2022/10/20 09:51:52;;;;;;;6.45;4.37;;;;;;;;;;1753453;81;21509;-59
2022/10/20 09:54:19;;;;;;;6.62;3.80;;;;;;;;;;1747116;81;22238;-58
2022/10/20 09:56:48;;;;;;;6.08;3.50;;;;;;;;;;1707296;81;21051;-59
2022/10/20 09:59:24;;;;;;;5.35;3.33;;;;;;;;;;1766728;81;21118;-59
2022/10/20 10:01:52;;;;;;;6.85;3.90;;;;;;;;;;1743679;81;21073;-59
2022/10/20 10:04:33;;;;;;;4.97;3.37;;;;;;;;;;1742460;81;21073;-58
2022/10/20 10:07:00;;;;;;;6.67;3.60;;;;;;;;;;1719585;83;21001;-59
2022/10/20 10:09:30;;;;;;;5.20;3.65;;;;;;;;;;1797975;80;21083;-59
2022/10/20 10:12:00;;;;;;;8.75;4.72;;;;;;;;;;1796351;80;21482;-59
2022/10/20 10:14:27;;;;;;;5.62;3.62;;;;;;;;;;1796568;80;21031;-59
2022/10/20 10:16:55;;;;;;;5.20;3.62;;;;;;;;;;1791230;80;21045;-59
2022/10/20 10:19:23;;;;;;;5.28;3.05;;;;;;;;;;1795025;80;21499;-59
2022/10/20 10:21:53;;;;;;;7.65;3.80;;;;;;;;;;1795463;80;21587;-59
2022/10/20 10:24:34;;;;;;;6.62;3.90;;;;;;;;;;1796535;80;21048;-59
2022/10/20 10:27:01;;;;;;;5.05;3.40;;;;;;;;;;1795256;80;21032;-59
2022/10/20 10:29:28;;;;;;;5.55;3.65;;;;;;;;;;1798194;80;21056;-59
2022/10/20 10:31:56;;;;;;;6.08;3.67;;;;;;;;;;1797381;80;21052;-59
2022/10/20 10:34:30;;;;;;;6.15;3.37;;;;;;;;;;1787299;80;21522;-59
2022/10/20 10:36:55;;;;;;;6.87;3.62;;;;;;;;;;1796918;80;21068;-58
2022/10/20 10:39:21;;;;;;;5.47;3.10;;;;;;;;;;1786544;80;21540;-58
2022/10/20 10:42:04;;;;;;;5.20;3.20;;;;;;;;;;1788975;80;21026;-59
2022/10/20 10:44:41;;;;;;;5.03;3.20;;;;;;;;;;1791902;80;21016;-59
2022/10/20 10:47:24;;;;;;;6.83;3.12;;;;;;;;;;1794287;79;21032;-59
2022/10/20 10:50:09;;;;;;;6.83;3.53;;;;;;;;;;1793728;80;21028;-60
2022/10/20 10:52:37;;;;;;;3.75;2.80;;;;;;;;;;1797834;80;21043;-59
2022/10/20 10:55:24;;;;;;;6.33;3.08;;;;;;;;;;1785547;80;21075;-59
2022/10/20 10:57:52;;;;;;;4.30;2.67;;;;;;;;;;1782972;80;21014;-59
2022/10/20 11:00:21;;;;;;;4.28;2.90;;;;;;;;;;1796413;80;20996;-59
2022/10/20 11:02:49;;;;;;;3.62;2.77;;;;;;;;;;1793712;80;21095;-58
2022/10/20 11:05:17;;;;;;;4.12;2.98;;;;;;;;;;1797844;80;21044;-58
2022/10/20 11:07:57;;;;;;;5.05;2.87;;;;;;;;;;1759685;80;21036;-59
2022/10/20 11:10:28;;;;;;;3.75;2.60;;;;;;;;;;1792348;80;21059;-59
2022/10/20 11:13:13;;;;;;;3.40;2.52;;;;;;;;;;1791459;80;21043;-59
2022/10/20 11:16:01;;;;;;;4.87;2.72;;;;;;;;;;1789572;80;21079;-60
2022/10/20 11:18:32;;;;;;;4.42;2.47;;;;;;;;;;1762558;80;21000;-59
2022/10/20 11:21:04;;;;;;;4.60;2.47;;;;;;;;;;1795380;80;21051;-60
2022/10/20 11:23:35;;;;;;;2.80;2.50;;;;;;;;;;1793857;80;21021;-60
2022/10/20 11:26:15;;;;;;;3.17;2.30;;;;;;;;;;1766449;80;21022;-60
2022/10/20 11:28:43;;;;;;;3.20;2.47;;;;;;;;;;1790150;80;21039;-60
2022/10/20 11:31:28;;;;;;;5.35;2.90;;;;;;;;;;1785923;80;21326;-59
2022/10/20 11:33:55;;;;;;;3.08;2.33;;;;;;;;;;1786823;80;21030;-60
2022/10/20 11:36:21;;;;;;;4.22;2.65;;;;;;;;;;1783892;80;21507;-59
2022/10/20 11:38:48;;;;;;;3.15;2.30;;;;;;;;;;1781861;80;21055;-60
2022/10/20 11:41:17;;;;;;;3.77;2.52;;;;;;;;;;1786467;80;22052;-59
2022/10/20 11:44:02;;;;;;;5.08;2.65;;;;;;;;;;1797885;80;21056;-59
2022/10/20 11:46:34;;;;;;;5.03;2.58;;;;;;;;;;1797961;80;21056;-59
2022/10/20 11:49:00;;;;;;;5.62;3.83;;;;;;;;;;1792662;80;20996;-60
2022/10/20 11:51:31;;;;;;;5.80;3.45;;;;;;;;;;1789802;80;21040;-59
2022/10/20 11:53:59;;;;;;;3.55;2.72;;;;;;;;;;1782960;80;21075;-60
2022/10/20 11:56:27;;;;;;;5.75;3.22;;;;;;;;;;1787899;80;21040;-59
2022/10/20 11:58:59;;;;;;;5.78;3.50;;;;;;;;;;1787271;80;21031;-58
2022/10/20 12:01:42;;;;;;;6.65;4.00;;;;;;;;;;1781707;80;21064;-58
2022/10/20 12:04:10;;;;;;;4.17;2.80;;;;;;;;;;1785119;80;20978;-60
2022/10/20 12:06:38;;;;;;;6.00;3.15;;;;;;;;;;1778581;80;21540;-60
2022/10/20 12:09:15;;;;;;;6.03;2.80;;;;;;;;;;1789430;80;21032;-59
2022/10/20 12:11:57;;;;;;;4.80;3.20;;;;;;;;;;1788677;80;21504;-60
2022/10/20 12:14:25;;;;;;;4.50;3.30;;;;;;;;;;1788749;79;21017;-57
2022/10/20 12:16:53;;;;;;;3.67;2.85;;;;;;;;;;1788338;79;21547;-57
2022/10/20 12:19:20;;;;;;;3.60;2.60;;;;;;;;;;1789457;80;21025;-60
2022/10/20 12:21:58;;;;;;;4.30;3.00;;;;;;;;;;1782494;79;21032;-57
2022/10/20 12:24:33;;;;;;;3.77;3.00;;;;;;;;;;1791167;80;21075;-60
2022/10/20 12:27:10;;;;;;;4.28;3.30;;;;;;;;;;1788817;80;21035;-60
2022/10/20 12:29:38;;;;;;;4.75;3.20;;;;;;;;;;1792514;79;21481;-59
2022/10/20 12:32:25;;;;;;;3.90;3.30;;;;;;;;;;1790547;80;20996;-59
2022/10/20 12:34:53;;;;;;;4.25;2.90;;;;;;;;;;1788056;80;21021;-60
2022/10/20 12:37:30;;;;;;;3.95;2.77;;;;;;;;;;1788800;80;21143;-59
2022/10/20 12:39:58;;;;;;;7.42;3.40;;;;;;;;;;1786917;79;21032;-59
2022/10/20 12:42:28;;;;;;;4.28;3.20;;;;;;;;;;1781836;80;21009;-59
2022/10/20 12:44:55;;;;;;;3.95;2.52;;;;;;;;;;1764875;81;21477;-59
2022/10/20 12:47:23;;;;;;;3.72;2.47;;;;;;;;;;1749463;81;20986;-59
2022/10/20 12:49:57;;;;;;;3.98;2.80;;;;;;;;;;1764625;80;21066;-60
2022/10/20 12:52:25;;;;;;;4.30;3.12;;;;;;;;;;1765572;80;21006;-61
2022/10/20 12:55:03;;;;;;;4.53;2.42;;;;;;;;;;1764103;80;21542;-60
2022/10/20 12:57:30;;;;;;;3.60;2.67;;;;;;;;;;1763290;80;21046;-59
2022/10/20 12:59:56;;;;;;;3.95;2.83;;;;;;;;;;1771116;80;21067;-60
2022/10/20 13:02:24;;;;;;;3.87;2.85;;;;;;;;;;1763966;79;21072;-59
2022/10/20 13:04:56;;;;;;;4.40;2.92;;;;;;;;;;1767471;80;22108;-59
2022/10/20 13:07:41;;;;;;;3.98;2.77;;;;;;;;;;1757985;81;21539;-61
2022/10/20 13:10:28;;;;;;;4.65;3.08;;;;;;;;;;1774702;80;21076;-61
2022/10/20 13:13:02;;;;;;;4.58;3.52;;;;;;;;;;1781452;80;21064;-59
2022/10/20 13:15:36;;;;;;;3.70;2.60;;;;;;;;;;1768440;80;21484;-60
2022/10/20 13:18:16;;;;;;;3.35;2.80;;;;;;;;;;1770923;80;21527;-60
2022/10/20 13:20:44;;;;;;;5.92;3.87;;;;;;;;;;1768716;80;21001;-60
2022/10/20 13:23:17;;;;;;;4.55;2.62;;;;;;;;;;1767049;80;21025;-60
2022/10/20 13:25:50;;;;;;;4.47;3.20;;;;;;;;;;1770095;80;20969;-60
2022/10/20 13:28:21;;;;;;;4.37;3.08;;;;;;;;;;1765979;80;21041;-60
2022/10/20 13:30:53;;;;;;;4.78;2.90;;;;;;;;;;1768149;80;21009;-61
2022/10/20 13:33:21;;;;;;;4.20;3.35;;;;;;;;;;1761283;80;21524;-58
2022/10/20 13:36:01;;;;;;;3.87;2.87;;;;;;;;;;1771461;80;21512;-58
2022/10/20 13:40:40;;;;;;;6.70;3.27;;;;;;;;;;1799580;78;23516;-60
2022/10/20 13:43:08;;;;;;;5.83;3.58;;;;;;;;;;1770078;79;20997;-59
2022/10/20 13:45:36;;;;;;;4.17;2.90;;;;;;;;;;1783583;80;21088;-60
2022/10/20 13:48:04;;;;;;;5.08;3.15;;;;;;;;;;1763010;80;21536;-60
2022/10/20 13:50:31;;;;;;;4.83;3.15;;;;;;;;;;1779052;79;21585;-59
2022/10/20 13:52:59;;;;;;;4.12;2.92;;;;;;;;;;1777681;80;21067;-59
2022/10/20 13:55:26;;;;;;;5.58;3.62;;;;;;;;;;1777458;79;21001;-60
2022/10/20 13:57:56;;;;;;;5.58;3.22;;;;;;;;;;1722362;83;21063;-60
2022/10/20 14:00:24;;;;;;;6.22;3.62;;;;;;;;;;1733294;81;21124;-59
2022/10/20 14:02:52;;;;;;;5.85;3.17;;;;;;;;;;1732910;82;21612;-58
2022/10/20 14:05:19;;;;;;;7.70;3.60;;;;;;;;;;1728567;82;21024;-59
2022/10/20 14:07:45;;;;;;;5.47;3.72;;;;;;;;;;1727031;82;21084;-59
2022/10/20 14:10:29;;;;;;;4.08;2.90;;;;;;;;;;1740151;81;21021;-59
2022/10/20 14:12:56;;;;;;;4.05;2.92;;;;;;;;;;1722643;81;21536;-59
2022/10/20 14:15:25;;;;;;;4.20;2.70;;;;;;;;;;1738066;81;21053;-59
2022/10/20 14:18:01;;;;;;;4.10;2.72;;;;;;;;;;1735257;81;21041;-59
2022/10/20 14:20:29;;;;;;;3.35;2.60;;;;;;;;;;1732535;81;21061;-60
2022/10/20 14:22:56;;;;;;;5.10;3.22;;;;;;;;;;1733270;81;21048;-59
2022/10/20 14:25:22;;;;;;;5.03;3.25;;;;;;;;;;1733283;81;21070;-59
2022/10/20 14:27:50;;;;;;;4.00;2.90;;;;;;;;;;1736324;81;21043;-60
2022/10/20 14:30:16;;;;;;;3.62;2.60;;;;;;;;;;1730571;81;21045;-58
2022/10/20 14:32:43;;;;;;;3.25;2.77;;;;;;;;;;1712681;82;21104;-59
2022/10/20 14:35:27;;;;;;;4.40;2.90;;;;;;;;;;1711918;82;22220;-59
2022/10/20 14:38:01;;;;;;;6.03;3.67;;;;;;;;;;1734518;81;21024;-59
2022/10/20 14:40:30;;;;;;;5.47;3.27;;;;;;;;;;1700589;82;21377;-59
2022/10/20 14:42:58;;;;;;;4.60;3.10;;;;;;;;;;1701989;82;21061;-59
2022/10/20 14:45:25;;;;;;;4.37;2.80;;;;;;;;;;1769057;80;21013;-60
2022/10/20 14:47:51;;;;;;;8.10;3.35;;;;;;;;;;1764103;80;21032;-58
2022/10/20 14:50:28;;;;;;;6.78;3.30;;;;;;;;;;1762706;80;21577;-59
2022/10/20 14:52:55;;;;;;;4.40;2.90;;;;;;;;;;1744564;81;21018;-59
2022/10/20 14:55:34;;;;;;;4.35;3.00;;;;;;;;;;1767742;81;21537;-59
2022/10/20 14:58:00;;;;;;;4.30;2.55;;;;;;;;;;1751555;80;21027;-59
2022/10/20 15:00:28;;;;;;;5.12;3.12;;;;;;;;;;1768896;80;21048;-59